createdAt,value
2018-06-23T00:01:16.749Z,20.18
2018-06-23T00:03:44.481Z,20.18
2018-06-23T00:06:12.166Z,20.18
2018-06-23T00:08:39.967Z,20.18
2018-06-23T00:11:07.713Z,20.18
2018-06-23T00:13:35.737Z,20.18
2018-06-23T00:16:03.524Z,20.16
2018-06-23T00:18:31.263Z,20.16
2018-06-23T00:20:59.081Z,20.16
2018-06-23T00:23:26.843Z,20.14
2018-06-23T00:26:00.212Z,20.15
2018-06-23T00:28:28.073Z,20.17
2018-06-23T00:30:55.909Z,20.18
2018-06-23T00:33:23.625Z,20.16
2018-06-23T00:35:51.534Z,20.17
2018-06-23T00:38:19.305Z,20.17
2018-06-23T00:40:47.199Z,20.18
2018-06-23T00:43:15.077Z,20.18
2018-06-23T00:45:42.893Z,20.17
2018-06-23T00:48:10.774Z,20.17
2018-06-23T00:50:38.840Z,20.01
2018-06-23T00:53:06.674Z,20.19
2018-06-23T00:55:34.412Z,20.18
2018-06-23T00:58:02.142Z,20.20
2018-06-23T01:00:29.964Z,20.18
2018-06-23T01:02:57.710Z,20.17
2018-06-23T01:05:25.388Z,20.18
2018-06-23T01:07:53.329Z,20.18
2018-06-23T01:10:21.064Z,20.19
2018-06-23T01:12:48.954Z,20.18
2018-06-23T01:15:16.801Z,20.18
2018-06-23T01:17:44.585Z,20.14
2018-06-23T01:20:12.476Z,20.15
2018-06-23T01:22:40.741Z,20.16
2018-06-23T01:25:08.485Z,20.16
2018-06-23T01:27:36.231Z,20.16
2018-06-23T01:30:04.276Z,20.14
2018-06-23T01:32:32.135Z,20.14
2018-06-23T01:35:00.259Z,20.14
2018-06-23T01:37:28.010Z,20.14
2018-06-23T01:39:55.767Z,20.13
2018-06-23T01:42:23.529Z,20.12
2018-06-23T01:44:51.500Z,20.13
2018-06-23T01:47:19.296Z,20.10
2018-06-23T01:49:46.970Z,20.09
2018-06-23T01:52:14.863Z,20.07
2018-06-23T01:54:42.658Z,20.10
2018-06-23T01:57:10.426Z,20.07
2018-06-23T01:59:38.243Z,20.08
2018-06-23T02:02:06.031Z,20.07
2018-06-23T02:04:33.727Z,20.08
2018-06-23T02:07:01.538Z,20.07
2018-06-23T02:09:29.357Z,20.08
2018-06-23T02:11:57.168Z,20.09
2018-06-23T02:14:30.522Z,20.07
2018-06-23T02:18:04.442Z,20.07
2018-06-23T02:20:37.809Z,20.06
2018-06-23T02:23:11.107Z,20.06
2018-06-23T02:25:44.497Z,20.07
2018-06-23T02:28:17.637Z,20.07
2018-06-23T02:30:50.998Z,20.05
2018-06-23T02:33:24.427Z,20.06
2018-06-23T02:35:52.216Z,20.07
2018-06-23T02:38:20.009Z,20.07
2018-06-23T02:40:47.810Z,20.04
2018-06-23T02:43:15.678Z,20.05
2018-06-23T02:45:43.559Z,20.06
2018-06-23T02:48:11.256Z,20.05
2018-06-23T02:50:39.152Z,20.06
2018-06-23T02:53:06.887Z,20.07
2018-06-23T02:55:34.637Z,20.07
2018-06-23T02:58:02.461Z,20.06
2018-06-23T03:00:30.196Z,20.05
2018-06-23T03:02:57.974Z,20.06
2018-06-23T03:05:25.979Z,20.07
2018-06-23T03:07:53.707Z,20.06
2018-06-23T03:10:21.465Z,20.07
2018-06-23T03:12:49.264Z,20.04
2018-06-23T03:15:17.114Z,20.05
2018-06-23T03:17:45.837Z,20.04
2018-06-23T03:20:13.721Z,20.06
2018-06-23T03:22:41.412Z,20.05
2018-06-23T03:25:09.172Z,20.03
2018-06-23T03:27:36.960Z,20.05
2018-06-23T03:30:04.768Z,20.05
2018-06-23T03:32:32.662Z,20.06
2018-06-23T03:35:00.662Z,20.03
2018-06-23T03:37:28.510Z,20.02
2018-06-23T03:39:56.396Z,20.05
2018-06-23T03:42:24.112Z,20.04
2018-06-23T03:44:51.940Z,20.02
2018-06-23T03:47:19.701Z,20.01
2018-06-23T03:49:47.499Z,20.02
2018-06-23T03:52:15.380Z,20.02
2018-06-23T03:54:43.130Z,20.02
2018-06-23T03:57:10.906Z,20.01
2018-06-23T03:59:38.834Z,20.00
2018-06-23T04:02:06.553Z,19.98
2018-06-23T04:04:34.693Z,19.99
2018-06-23T04:07:02.896Z,19.98
2018-06-23T04:09:30.718Z,19.99
2018-06-23T04:11:58.511Z,19.99
2018-06-23T04:14:26.178Z,19.99
2018-06-23T04:16:54.163Z,20.00
2018-06-23T04:19:21.909Z,19.99
2018-06-23T04:21:50.109Z,19.99
2018-06-23T04:24:17.829Z,20.00
2018-06-23T04:26:45.600Z,20.00
2018-06-23T04:29:13.371Z,19.98
2018-06-23T04:31:41.229Z,19.99
2018-06-23T04:34:08.982Z,19.98
2018-06-23T04:36:36.964Z,19.97
2018-06-23T04:39:06.592Z,19.97
2018-06-23T04:41:34.305Z,19.98
2018-06-23T04:44:02.234Z,19.97
2018-06-23T04:46:29.996Z,19.98
2018-06-23T04:48:57.953Z,20.01
2018-06-23T04:51:25.660Z,20.05
2018-06-23T04:53:53.488Z,20.07
2018-06-23T04:56:21.746Z,20.08
2018-06-23T04:58:49.498Z,20.08
2018-06-23T05:01:17.266Z,20.09
2018-06-23T05:03:45.216Z,20.08
2018-06-23T05:06:12.912Z,20.07
2018-06-23T05:08:40.729Z,20.07
2018-06-23T05:11:08.925Z,20.05
2018-06-23T05:13:36.765Z,20.07
2018-06-23T05:16:05.160Z,20.08
2018-06-23T05:18:32.960Z,20.10
2018-06-23T05:21:00.698Z,20.14
2018-06-23T05:23:28.459Z,20.17
2018-06-23T05:25:56.235Z,20.19
2018-06-23T05:28:24.058Z,20.19
2018-06-23T05:30:52.005Z,20.13
2018-06-23T05:33:21.393Z,20.09
2018-06-23T05:35:49.238Z,20.11
2018-06-23T05:38:17.160Z,20.18
2018-06-23T05:40:44.981Z,20.23
2018-06-23T05:43:12.953Z,20.23
2018-06-23T05:45:40.951Z,20.23
2018-06-23T05:48:09.132Z,20.24
2018-06-23T05:50:36.904Z,20.22
2018-06-23T05:53:04.644Z,20.20
2018-06-23T05:55:32.463Z,20.19
2018-06-23T05:58:00.244Z,20.27
2018-06-23T06:00:28.144Z,20.32
2018-06-23T06:02:56.009Z,20.36
2018-06-23T06:05:23.781Z,20.18
2018-06-23T06:07:51.510Z,20.43
2018-06-23T06:10:19.795Z,20.40
2018-06-23T06:12:47.560Z,20.39
2018-06-23T06:15:15.306Z,20.39
2018-06-23T06:17:43.202Z,20.41
2018-06-23T06:20:12.702Z,20.42
2018-06-23T06:22:42.616Z,20.44
2018-06-23T06:25:11.001Z,20.43
2018-06-23T06:27:38.796Z,20.44
2018-06-23T06:30:07.810Z,20.46
2018-06-23T06:32:35.614Z,20.48
2018-06-23T06:35:03.583Z,20.54
2018-06-23T06:37:31.438Z,20.60
2018-06-23T06:39:59.353Z,20.58
2018-06-23T06:42:27.129Z,20.54
2018-06-23T06:44:54.930Z,20.56
2018-06-23T06:47:22.654Z,20.59
2018-06-23T06:49:50.475Z,20.62
2018-06-23T06:52:18.267Z,20.62
2018-06-23T06:54:46.001Z,20.63
2018-06-23T06:57:13.832Z,20.64
2018-06-23T06:59:41.658Z,20.66
2018-06-23T07:02:09.375Z,20.68
2018-06-23T07:04:37.299Z,20.72
2018-06-23T07:07:05.130Z,20.75
2018-06-23T07:09:32.903Z,20.74
2018-06-23T07:12:01.110Z,20.79
2018-06-23T07:14:28.827Z,20.82
2018-06-23T07:16:56.590Z,20.87
2018-06-23T07:19:24.409Z,20.85
2018-06-23T07:21:52.195Z,20.82
2018-06-23T07:24:19.988Z,20.87
2018-06-23T07:26:47.967Z,20.92
2018-06-23T07:29:15.812Z,20.91
2018-06-23T07:31:43.696Z,20.88
2018-06-23T07:34:11.497Z,20.83
2018-06-23T07:36:39.265Z,20.79
2018-06-23T07:39:08.404Z,20.71
2018-06-23T07:41:36.266Z,20.68
2018-06-23T07:44:04.619Z,20.69
2018-06-23T07:46:32.848Z,20.74
2018-06-23T07:49:00.680Z,20.73
2018-06-23T07:51:28.434Z,20.76
2018-06-23T07:53:56.270Z,20.82
2018-06-23T07:56:23.992Z,20.86
2018-06-23T07:58:51.777Z,20.82
2018-06-23T08:01:19.825Z,20.79
2018-06-23T08:03:47.440Z,20.78
2018-06-23T08:06:15.589Z,20.80
2018-06-23T08:08:43.507Z,20.88
2018-06-23T08:11:11.182Z,20.94
2018-06-23T08:13:38.829Z,20.95
2018-06-23T08:16:06.983Z,20.97
2018-06-23T08:18:34.783Z,20.94
2018-06-23T08:21:02.561Z,20.90
2018-06-23T08:23:30.560Z,20.86
2018-06-23T08:25:58.368Z,20.87
2018-06-23T08:28:26.134Z,20.86
2018-06-23T08:30:53.883Z,20.83
2018-06-23T08:33:21.678Z,20.84
2018-06-23T08:35:49.409Z,20.90
2018-06-23T08:38:17.222Z,20.95
2018-06-23T08:40:44.967Z,20.99
2018-06-23T08:43:12.794Z,21.01
2018-06-23T08:45:40.689Z,21.01
2018-06-23T08:48:08.571Z,21.02
2018-06-23T08:50:36.298Z,21.04
2018-06-23T08:53:04.151Z,21.05
2018-06-23T08:55:31.939Z,21.07
2018-06-23T08:57:59.766Z,21.10
2018-06-23T09:00:27.503Z,21.16
2018-06-23T09:02:55.329Z,21.20
2018-06-23T09:05:23.278Z,21.21
2018-06-23T09:07:51.124Z,21.17
2018-06-23T09:10:19.163Z,21.10
2018-06-23T09:12:46.969Z,21.08
2018-06-23T09:15:15.206Z,21.09
2018-06-23T09:17:43.191Z,21.12
2018-06-23T09:20:11.149Z,21.13
2018-06-23T09:22:39.104Z,21.11
2018-06-23T09:25:06.907Z,21.06
2018-06-23T09:27:34.706Z,21.02
2018-06-23T09:30:02.491Z,20.98
2018-06-23T09:32:30.690Z,20.99
2018-06-23T09:34:58.515Z,21.01
2018-06-23T09:37:26.345Z,21.08
2018-06-23T09:39:54.725Z,21.15
2018-06-23T09:42:22.961Z,21.19
2018-06-23T09:44:50.641Z,21.15
2018-06-23T09:47:18.674Z,21.09
2018-06-23T09:49:46.924Z,21.08
2018-06-23T09:52:14.762Z,21.16
2018-06-23T09:54:42.519Z,21.21
2018-06-23T09:57:10.346Z,21.15
2018-06-23T09:59:38.894Z,21.03
2018-06-23T10:02:06.811Z,21.00
2018-06-23T10:04:34.764Z,21.09
2018-06-23T10:07:02.690Z,21.17
2018-06-23T10:09:30.488Z,21.21
2018-06-23T10:11:58.288Z,21.20
2018-06-23T10:14:25.920Z,21.11
2018-06-23T10:16:53.829Z,21.00
2018-06-23T10:19:21.803Z,20.92
2018-06-23T10:21:49.530Z,20.83
2018-06-23T10:24:17.284Z,20.82
2018-06-23T10:26:45.133Z,20.82
2018-06-23T10:29:12.806Z,20.90
2018-06-23T10:31:40.700Z,20.95
2018-06-23T10:34:08.526Z,20.94
2018-06-23T10:36:36.366Z,20.92
2018-06-23T10:39:06.901Z,21.03
2018-06-23T10:41:34.741Z,21.13
2018-06-23T10:44:02.803Z,21.18
2018-06-23T10:46:30.575Z,21.17
2018-06-23T10:48:58.640Z,21.16
2018-06-23T10:51:26.494Z,21.16
2018-06-23T10:53:54.334Z,21.20
2018-06-23T10:56:22.378Z,21.28
2018-06-23T10:58:50.077Z,21.33
2018-06-23T11:01:17.991Z,21.32
2018-06-23T11:03:45.710Z,21.31
2018-06-23T11:06:13.388Z,21.28
2018-06-23T11:08:41.249Z,21.26
2018-06-23T11:11:09.028Z,21.21
2018-06-23T11:13:38.312Z,21.18
2018-06-23T11:16:06.248Z,21.13
2018-06-23T11:18:34.010Z,21.14
2018-06-23T11:21:01.728Z,21.08
2018-06-23T11:23:29.711Z,21.04
2018-06-23T11:25:57.589Z,21.04
2018-06-23T11:28:25.765Z,21.04
2018-06-23T11:30:53.497Z,20.97
2018-06-23T11:33:21.312Z,20.92
2018-06-23T11:35:49.184Z,20.94
2018-06-23T11:38:17.291Z,20.94
2018-06-23T11:40:45.148Z,21.01
2018-06-23T11:43:12.830Z,21.11
2018-06-23T11:45:40.606Z,21.18
2018-06-23T11:48:08.491Z,21.16
2018-06-23T11:50:36.329Z,21.06
2018-06-23T11:53:04.107Z,20.98
2018-06-23T11:55:32.133Z,20.88
2018-06-23T11:57:59.884Z,20.82
2018-06-23T12:00:27.738Z,20.78
2018-06-23T12:02:55.691Z,20.78
2018-06-23T12:05:23.484Z,20.77
2018-06-23T12:07:51.292Z,20.77
2018-06-23T12:10:19.103Z,20.77
2018-06-23T12:12:47.161Z,20.73
2018-06-23T12:15:15.084Z,20.70
2018-06-23T12:17:42.810Z,20.67
2018-06-23T12:20:10.523Z,20.65
2018-06-23T12:22:38.404Z,20.72
2018-06-23T12:25:06.198Z,20.81
2018-06-23T12:27:33.948Z,20.90
2018-06-23T12:30:01.741Z,20.83
2018-06-23T12:32:29.541Z,20.77
2018-06-23T12:34:57.470Z,20.68
2018-06-23T12:37:25.262Z,20.64
2018-06-23T12:39:53.007Z,20.65
2018-06-23T12:42:21.272Z,20.68
2018-06-23T12:44:49.094Z,20.73
2018-06-23T12:47:16.913Z,20.80
2018-06-23T12:49:44.723Z,20.84
2018-06-23T12:52:12.456Z,20.87
2018-06-23T12:54:40.280Z,20.90
2018-06-23T12:57:08.415Z,20.92
2018-06-23T12:59:36.217Z,21.00
2018-06-23T13:02:04.051Z,20.96
2018-06-23T13:04:31.779Z,20.82
2018-06-23T13:06:59.757Z,20.72
2018-06-23T13:09:27.770Z,20.66
2018-06-23T13:11:55.498Z,20.65
2018-06-23T13:14:23.245Z,20.62
2018-06-23T13:16:51.056Z,20.67
2018-06-23T13:19:19.206Z,20.74
2018-06-23T13:21:46.944Z,20.76
2018-06-23T13:24:14.850Z,20.72
2018-06-23T13:26:42.711Z,20.66
2018-06-23T13:29:10.541Z,20.60
2018-06-23T13:31:38.355Z,20.59
2018-06-23T13:34:06.074Z,20.65
2018-06-23T13:36:33.922Z,20.75
2018-06-23T13:39:01.685Z,20.80
2018-06-23T13:41:29.565Z,20.81
2018-06-23T13:43:57.836Z,20.75
2018-06-23T13:46:25.561Z,20.66
2018-06-23T13:48:53.326Z,20.61
2018-06-23T13:51:21.219Z,20.60
2018-06-23T13:53:48.964Z,20.62
2018-06-23T13:56:16.842Z,20.66
2018-06-23T13:58:44.696Z,20.69
2018-06-23T14:01:12.404Z,20.69
2018-06-23T14:03:40.300Z,20.67
2018-06-23T14:06:08.120Z,20.60
2018-06-23T14:08:35.938Z,20.56
2018-06-23T14:11:03.945Z,20.53
2018-06-23T14:13:31.774Z,20.57
2018-06-23T14:15:59.513Z,20.57
2018-06-23T14:18:27.383Z,20.52
2018-06-23T14:20:55.094Z,20.50
2018-06-23T14:23:22.909Z,20.47
2018-06-23T14:25:50.611Z,20.46
2018-06-23T14:28:18.443Z,20.35
2018-06-23T14:30:46.232Z,20.45
2018-06-23T14:33:13.964Z,20.42
2018-06-23T14:35:41.901Z,20.40
2018-06-23T14:38:09.671Z,20.39
2018-06-23T14:40:37.462Z,20.38
2018-06-23T14:43:05.184Z,20.41
2018-06-23T14:45:32.959Z,20.41
2018-06-23T14:48:00.689Z,20.41
2018-06-23T14:50:28.459Z,20.40
2018-06-23T14:52:56.233Z,20.40
2018-06-23T14:55:24.147Z,20.40
2018-06-23T14:57:51.980Z,20.38
2018-06-23T15:00:19.953Z,20.35
2018-06-23T15:02:48.705Z,20.34
2018-06-23T15:05:16.530Z,20.34
2018-06-23T15:07:44.631Z,20.32
2018-06-23T15:10:23.576Z,20.31
2018-06-23T15:13:02.535Z,20.30
2018-06-23T15:15:30.284Z,20.30
2018-06-23T15:17:58.057Z,20.30
2018-06-23T15:20:25.913Z,20.28
2018-06-23T15:22:53.805Z,20.26
2018-06-23T15:25:21.587Z,20.26
2018-06-23T15:27:49.596Z,20.26
2018-06-23T15:30:17.359Z,20.25
2018-06-23T15:32:45.133Z,20.26
2018-06-23T15:35:12.874Z,20.27
2018-06-23T15:37:40.647Z,20.30
2018-06-23T15:40:08.641Z,20.30
2018-06-23T15:42:36.384Z,20.28
2018-06-23T15:45:04.122Z,20.29
2018-06-23T15:47:32.279Z,20.26
2018-06-23T15:49:59.986Z,20.23
2018-06-23T15:52:28.657Z,20.21
2018-06-23T15:54:56.418Z,20.17
2018-06-23T15:57:24.220Z,20.16
2018-06-23T15:59:52.017Z,20.17
2018-06-23T16:02:19.837Z,20.17
2018-06-23T16:04:47.764Z,20.17
2018-06-23T16:07:15.546Z,20.17
2018-06-23T16:09:43.442Z,20.14
2018-06-23T16:12:11.189Z,20.16
2018-06-23T16:14:39.007Z,20.15
2018-06-23T16:17:06.981Z,20.13
2018-06-23T16:19:34.806Z,20.12
2018-06-23T16:22:02.539Z,20.10
2018-06-23T16:24:30.297Z,20.09
2018-06-23T16:26:58.418Z,20.09
2018-06-23T16:29:26.161Z,20.09
2018-06-23T16:31:53.825Z,20.08
2018-06-23T16:34:21.686Z,20.08
2018-06-23T16:36:49.379Z,20.09
2018-06-23T16:39:17.142Z,20.11
2018-06-23T16:41:44.943Z,20.09
2018-06-23T16:44:12.729Z,20.09
2018-06-23T16:46:40.520Z,20.11
2018-06-23T16:49:08.215Z,20.12
2018-06-23T16:51:36.182Z,20.13
2018-06-23T16:54:03.943Z,20.13
2018-06-23T16:56:31.946Z,20.12
2018-06-23T16:58:59.775Z,20.09
2018-06-23T17:01:27.516Z,20.10
2018-06-23T17:03:55.495Z,20.10
2018-06-23T17:06:23.235Z,20.10
2018-06-23T17:08:51.060Z,20.10
2018-06-23T17:11:19.101Z,20.10
2018-06-23T17:13:46.917Z,20.09
2018-06-23T17:16:14.584Z,20.08
2018-06-23T17:18:42.305Z,20.07
2018-06-23T17:21:10.026Z,20.07
2018-06-23T17:23:37.822Z,20.06
2018-06-23T17:26:05.601Z,20.05
2018-06-23T17:28:33.447Z,20.06
2018-06-23T17:31:01.304Z,20.06
2018-06-23T17:33:29.236Z,20.04
2018-06-23T17:35:57.358Z,20.03
2018-06-23T17:38:25.298Z,20.02
2018-06-23T17:40:53.060Z,20.03
2018-06-23T17:43:20.814Z,20.02
2018-06-23T17:45:48.469Z,20.02
2018-06-23T17:48:16.300Z,20.00
2018-06-23T17:50:43.969Z,19.99
2018-06-23T17:53:12.091Z,19.99
2018-06-23T17:55:39.832Z,19.98
2018-06-23T17:58:07.698Z,19.96
2018-06-23T18:00:35.434Z,19.95
2018-06-23T18:03:03.259Z,19.95
2018-06-23T18:05:31.136Z,19.94
2018-06-23T18:07:58.945Z,19.87
2018-06-23T18:10:26.905Z,19.90
2018-06-23T18:12:54.684Z,19.90
2018-06-23T18:15:22.399Z,19.90
2018-06-23T18:17:50.219Z,19.91
2018-06-23T18:20:17.956Z,19.90
2018-06-23T18:22:45.829Z,19.90
2018-06-23T18:25:13.661Z,19.89
2018-06-23T18:27:41.467Z,19.87
2018-06-23T18:30:09.214Z,19.88
2018-06-23T18:32:37.019Z,19.88
2018-06-23T18:35:04.876Z,19.86
2018-06-23T18:37:32.577Z,19.87
2018-06-23T18:40:00.660Z,19.86
2018-06-23T18:42:28.418Z,19.87
2018-06-23T18:44:56.291Z,19.86
2018-06-23T18:47:24.282Z,19.85
2018-06-23T18:49:52.243Z,19.86
2018-06-23T18:52:19.994Z,19.86
2018-06-23T18:54:47.798Z,19.85
2018-06-23T18:57:16.136Z,19.87
2018-06-23T18:59:43.909Z,19.87
2018-06-23T19:02:11.538Z,19.87
2018-06-23T19:04:39.763Z,19.86
2018-06-23T19:07:07.483Z,19.88
2018-06-23T19:09:35.270Z,19.87
2018-06-23T19:12:03.036Z,19.87
2018-06-23T19:14:30.849Z,19.87
2018-06-23T19:16:58.608Z,19.84
2018-06-23T19:19:26.361Z,19.86
2018-06-23T19:21:54.272Z,19.84
2018-06-23T19:24:21.972Z,19.84
2018-06-23T19:26:49.781Z,19.84
2018-06-23T19:29:17.985Z,19.85
2018-06-23T19:31:45.962Z,19.84
2018-06-23T19:34:14.130Z,19.84
2018-06-23T19:36:41.996Z,19.82
2018-06-23T19:39:10.556Z,19.81
2018-06-23T19:41:38.295Z,19.81
2018-06-23T19:44:05.990Z,19.81
2018-06-23T19:46:33.803Z,19.81
2018-06-23T19:49:01.629Z,19.79
2018-06-23T19:51:29.356Z,19.79
2018-06-23T19:53:57.428Z,19.76
2018-06-23T19:56:25.221Z,19.76
2018-06-23T19:58:53.097Z,19.76
2018-06-23T20:01:20.838Z,19.75
2018-06-23T20:03:48.862Z,19.73
2018-06-23T20:06:16.578Z,19.74
2018-06-23T20:08:44.415Z,19.75
2018-06-23T20:11:12.233Z,19.74
2018-06-23T20:13:39.947Z,19.75
2018-06-23T20:16:07.883Z,19.74
2018-06-23T20:18:35.756Z,19.73
2018-06-23T20:21:03.491Z,19.74
2018-06-23T20:23:31.727Z,19.73
2018-06-23T20:25:59.561Z,19.72
2018-06-23T20:28:28.212Z,19.74
2018-06-23T20:30:56.410Z,19.72
2018-06-23T20:33:24.737Z,19.72
2018-06-23T20:35:52.713Z,19.71
2018-06-23T20:38:21.327Z,19.71
2018-06-23T20:40:49.648Z,19.71
2018-06-23T20:43:17.494Z,19.72
2018-06-23T20:45:45.249Z,19.72
2018-06-23T20:48:13.052Z,19.70
2018-06-23T20:50:40.953Z,19.73
2018-06-23T20:53:08.745Z,19.75
2018-06-23T20:55:36.534Z,19.75
2018-06-23T20:58:04.377Z,19.75
2018-06-23T21:00:32.561Z,19.74
2018-06-23T21:03:00.230Z,19.23
2018-06-23T21:05:28.491Z,19.74
2018-06-23T21:07:56.204Z,19.74
2018-06-23T21:10:35.083Z,19.74
2018-06-23T21:13:02.923Z,19.54
2018-06-23T21:15:30.628Z,19.72
2018-06-23T21:17:58.516Z,19.71
2018-06-23T21:20:26.304Z,19.70
2018-06-23T21:22:54.016Z,19.72
2018-06-23T21:25:21.798Z,19.71
2018-06-23T21:27:49.518Z,19.71
2018-06-23T21:30:17.270Z,19.73
2018-06-23T21:32:44.989Z,19.73
2018-06-23T21:35:13.297Z,19.72
2018-06-23T21:37:41.141Z,19.73
2018-06-23T21:40:09.071Z,19.72
2018-06-23T21:42:37.261Z,19.72
2018-06-23T21:45:04.990Z,19.71
2018-06-23T21:47:32.694Z,19.71
2018-06-23T21:50:00.529Z,19.71
2018-06-23T21:52:28.303Z,19.68
2018-06-23T21:54:56.177Z,19.69
2018-06-23T21:57:24.023Z,19.68
2018-06-23T21:59:51.848Z,19.69
2018-06-23T22:02:19.781Z,19.68
2018-06-23T22:04:47.488Z,19.67
2018-06-23T22:07:15.383Z,19.67
2018-06-23T22:09:43.163Z,19.66
2018-06-23T22:12:11.013Z,19.66
2018-06-23T22:14:38.949Z,19.67
2018-06-23T22:17:06.957Z,19.66
2018-06-23T22:19:34.800Z,19.66
2018-06-23T22:22:02.663Z,19.66
2018-06-23T22:24:30.392Z,19.65
2018-06-23T22:26:58.210Z,19.64
2018-06-23T22:29:26.495Z,19.65
2018-06-23T22:31:54.290Z,19.65
2018-06-23T22:34:22.116Z,19.64
2018-06-23T22:36:50.294Z,19.64
2018-06-23T22:39:18.004Z,19.64
2018-06-23T22:41:45.742Z,19.63
2018-06-23T22:44:13.529Z,19.63
2018-06-23T22:46:41.502Z,19.64
2018-06-23T22:49:09.318Z,19.64
2018-06-23T22:51:37.008Z,19.66
2018-06-23T22:54:04.896Z,19.67
2018-06-23T22:56:32.664Z,19.68
2018-06-23T22:59:00.529Z,19.68
2018-06-23T23:01:28.307Z,19.67
2018-06-23T23:03:56.109Z,19.67
2018-06-23T23:06:23.905Z,19.66
2018-06-23T23:08:51.717Z,19.66
2018-06-23T23:11:19.624Z,19.66
2018-06-23T23:13:47.444Z,19.65
2018-06-23T23:16:15.151Z,19.65
2018-06-23T23:18:43.270Z,19.64
2018-06-23T23:21:11.119Z,19.63
2018-06-23T23:23:38.791Z,19.61
2018-06-23T23:26:06.584Z,19.61
2018-06-23T23:28:34.300Z,19.62
2018-06-23T23:31:02.054Z,19.62
2018-06-23T23:33:29.980Z,19.63
2018-06-23T23:35:58.107Z,19.61
2018-06-23T23:38:25.932Z,19.61
2018-06-23T23:40:53.724Z,19.62
2018-06-23T23:43:21.738Z,19.62
2018-06-23T23:45:49.539Z,19.61
2018-06-23T23:48:17.311Z,19.61
2018-06-23T23:50:45.071Z,19.61
2018-06-23T23:53:13.246Z,19.60
2018-06-23T23:55:41.041Z,19.59
2018-06-23T23:58:08.825Z,19.59
